Time;durP1;ratioP1;P1;durP2;ratioP2;P2;SDS_P1;SDS_P2;PMS_P1;PMS_P2;Temp;Humidity;BMP_temperature;BMP_pressure;BME280_temperature;BME280_humidity;BME280_pressure;Samples;Min_cycle;Max_cycle;Signal;HPM_P1;HPM_P2
2023/09/28 00:01:03;;;;;;;0.85;0.60;;;17.10;63.80;;;;;;5012021;28;20053;-70
2023/09/28 00:03:29;;;;;;;1.30;0.82;;;17.10;63.70;;;;;;5013041;28;20030;-71
2023/09/28 00:05:55;;;;;;;1.95;1.08;;;17.00;63.30;;;;;;5029270;28;20439;-70
2023/09/28 00:08:21;;;;;;;0.90;0.50;;;16.90;63.20;;;;;;5012740;28;20128;-71
2023/09/28 00:10:47;;;;;;;1.48;0.75;;;16.80;63.40;;;;;;5013356;28;20521;-71
2023/09/28 00:13:13;;;;;;;1.20;0.80;;;16.80;63.80;;;;;;5014092;28;20046;-71
2023/09/28 00:15:39;;;;;;;0.45;0.45;;;16.70;63.90;;;;;;5011941;28;20441;-70
2023/09/28 00:18:05;;;;;;;0.38;0.38;;;16.70;64.10;;;;;;5013935;28;20042;-70
2023/09/28 00:20:31;;;;;;;1.33;0.82;;;16.70;64.30;;;;;;5011571;28;20076;-70
2023/09/28 00:22:58;;;;;;;0.80;0.52;;;16.50;64.40;;;;;;5012643;28;20070;-70
2023/09/28 00:25:24;;;;;;;1.70;1.15;;;16.40;63.80;;;;;;5013346;28;20099;-71
2023/09/28 00:27:53;;;;;;;1.27;0.68;;;16.30;63.70;;;;;;5013883;28;20513;-71
2023/09/28 00:30:22;;;;;;;1.75;0.80;;;16.10;63.90;;;;;;5011520;28;20033;-71
2023/09/28 00:32:54;;;;;;;2.55;1.20;;;16.10;64.20;;;;;;5012443;28;20045;-70
2023/09/28 00:35:21;;;;;;;0.75;0.55;;;16.10;64.60;;;;;;5013008;28;20038;-70
2023/09/28 00:37:48;;;;;;;0.63;0.50;;;16.10;64.20;;;;;;5012329;28;20073;-70
2023/09/28 00:43:00;;;;;;;0.75;0.50;;;16.20;65.10;;;;;;5013512;28;20069;-71
2023/09/28 00:45:28;;;;;;;1.50;1.17;;;16.10;65.20;;;;;;5011757;28;20041;-70
2023/09/28 00:47:59;;;;;;;1.30;0.50;;;16.10;65.00;;;;;;5012193;28;20044;-70
2023/09/28 00:50:27;;;;;;;1.92;1.20;;;16.00;64.80;;;;;;5011232;28;20038;-71
2023/09/28 00:52:58;;;;;;;1.30;1.02;;;16.00;65.10;;;;;;5012786;28;20391;-71
2023/09/28 00:55:25;;;;;;;1.15;0.82;;;15.90;65.70;;;;;;5027868;28;20037;-71
2023/09/28 00:57:52;;;;;;;1.25;0.73;;;15.90;65.30;;;;;;5011804;28;20042;-70
2023/09/28 01:00:20;;;;;;;1.35;0.88;;;15.90;66.00;;;;;;5010965;28;20033;-70
2023/09/28 01:03:06;;;;;;;5.05;1.08;;;15.90;65.80;;;;;;5013281;28;20030;-70
2023/09/28 01:05:40;;;;;;;2.55;1.17;;;16.00;66.00;;;;;;4995005;28;20042;-70
2023/09/28 01:08:24;;;;;;;2.25;1.05;;;16.00;66.30;;;;;;5013207;28;20045;-71
2023/09/28 01:10:50;;;;;;;1.50;1.00;;;16.00;66.20;;;;;;5012077;28;20073;-70
2023/09/28 01:13:20;;;;;;;1.15;0.43;;;16.00;66.40;;;;;;5028171;28;20041;-70
2023/09/28 01:15:49;;;;;;;1.83;0.55;;;16.00;66.60;;;;;;5012567;28;20048;-71
2023/09/28 01:18:17;;;;;;;0.82;0.80;;;16.00;66.40;;;;;;5011651;28;20500;-71
2023/09/28 01:20:45;;;;;;;1.77;0.85;;;15.90;66.60;;;;;;5010442;28;20057;-70
2023/09/28 01:23:11;;;;;;;0.47;0.47;;;15.90;66.60;;;;;;5011441;28;20034;-71
2023/09/28 01:25:39;;;;;;;0.47;0.47;;;16.00;66.50;;;;;;5010887;28;20026;-70
2023/09/28 01:28:07;;;;;;;0.95;0.40;;;15.80;65.60;;;;;;5011466;28;20042;-71
2023/09/28 01:30:34;;;;;;;2.88;1.23;;;15.80;65.80;;;;;;5010381;28;20030;-70
2023/09/28 01:33:00;;;;;;;0.77;0.50;;;15.70;65.90;;;;;;5011410;28;20104;-71
2023/09/28 01:35:29;;;;;;;2.80;1.60;;;15.60;66.00;;;;;;5010801;28;20117;-70
2023/09/28 01:38:16;;;;;;;1.33;0.90;;;15.50;66.10;;;;;;5012499;28;20034;-70
2023/09/28 01:40:43;;;;;;;0.63;0.63;;;15.50;66.00;;;;;;5010441;28;20033;-71
2023/09/28 01:43:10;;;;;;;2.17;1.38;;;15.50;66.00;;;;;;5011247;28;20085;-71
2023/09/28 01:45:36;;;;;;;0.68;0.55;;;15.50;66.50;;;;;;5012007;28;20115;-71
2023/09/28 01:48:06;;;;;;;2.25;0.50;;;15.50;66.60;;;;;;5027644;28;20057;-71
2023/09/28 01:50:33;;;;;;;1.05;0.52;;;15.40;66.40;;;;;;5011446;28;20088;-70
2023/09/28 01:52:59;;;;;;;0.25;0.22;;;15.40;66.40;;;;;;5012341;28;20034;-71
2023/09/28 01:55:25;;;;;;;9.52;1.52;;;15.30;66.60;;;;;;5026975;28;20483;-70
2023/09/28 01:57:51;;;;;;;;;;;15.30;66.60;;;;;;5012796;28;20060;-71
2023/09/28 02:00:22;;;;;;;1.17;1.05;;;15.30;65.90;;;;;;5011173;28;20370;-70
2023/09/28 02:02:52;;;;;;;0.75;0.50;;;15.20;66.70;;;;;;5011055;28;20050;-70
2023/09/28 02:05:37;;;;;;;0.68;0.43;;;15.10;66.80;;;;;;5009572;28;20033;-71
2023/09/28 02:08:05;;;;;;;2.15;0.60;;;15.10;67.20;;;;;;5010878;28;20438;-70
2023/09/28 02:10:32;;;;;;;1.17;0.75;;;15.00;66.70;;;;;;5011158;28;20121;-70
2023/09/28 02:12:59;;;;;;;1.95;1.02;;;15.00;67.00;;;;;;5011006;28;20362;-71
2023/09/28 02:15:25;;;;;;;;;;;15.00;67.20;;;;;;5010754;28;20042;-71
2023/09/28 02:17:51;;;;;;;3.13;0.93;;;15.00;66.50;;;;;;5012129;28;20344;-70
2023/09/28 02:20:22;;;;;;;0.95;0.52;;;15.00;67.60;;;;;;5011034;28;20406;-71
2023/09/28 02:22:52;;;;;;;2.03;1.05;;;15.00;67.10;;;;;;5012176;28;20045;-70
2023/09/28 02:25:22;;;;;;;2.42;1.45;;;15.00;67.50;;;;;;5011490;28;20026;-70
2023/09/28 02:27:50;;;;;;;0.90;0.65;;;15.00;67.70;;;;;;5010650;28;20383;-71
2023/09/28 02:30:20;;;;;;;1.70;1.38;;;15.00;67.70;;;;;;5009742;28;20030;-70
2023/09/28 02:33:06;;;;;;;1.25;0.70;;;14.90;67.50;;;;;;5011959;28;20502;-71
2023/09/28 02:35:32;;;;;;;1.10;0.65;;;14.80;68.10;;;;;;5010260;28;20506;-70
2023/09/28 02:37:58;;;;;;;0.47;0.40;;;14.90;68.20;;;;;;5011930;28;20053;-71
2023/09/28 02:40:24;;;;;;;1.25;0.77;;;14.90;67.90;;;;;;5010973;28;20107;-71
2023/09/28 02:42:51;;;;;;;0.77;0.65;;;14.80;67.40;;;;;;5011942;28;20080;-71
2023/09/28 02:45:17;;;;;;;;;;;14.80;67.30;;;;;;5011788;28;20057;-70
2023/09/28 02:47:46;;;;;;;0.45;0.38;;;14.70;67.40;;;;;;5010645;28;20482;-71
2023/09/28 02:50:15;;;;;;;1.58;0.90;;;14.70;67.90;;;;;;5009686;28;20480;-70
2023/09/28 02:52:43;;;;;;;1.10;0.65;;;14.60;67.50;;;;;;5010508;28;20025;-71
2023/09/28 02:55:11;;;;;;;2.00;1.08;;;14.60;67.30;;;;;;5009941;28;20022;-71
2023/09/28 02:57:38;;;;;;;1.58;0.70;;;14.50;67.60;;;;;;5026805;28;20030;-71
2023/09/28 03:02:53;;;;;;;0.95;0.82;;;14.50;68.20;;;;;;5011031;28;20030;-71
2023/09/28 03:05:38;;;;;;;2.08;0.73;;;14.50;67.70;;;;;;5009924;28;20036;-71
2023/09/28 03:08:10;;;;;;;0.73;0.47;;;14.60;68.60;;;;;;5010301;28;20034;-71
2023/09/28 03:10:56;;;;;;;0.90;0.80;;;14.50;68.50;;;;;;5009328;28;20037;-71
2023/09/28 03:13:22;;;;;;;1.50;0.88;;;14.60;68.60;;;;;;5011634;28;20050;-70
2023/09/28 03:15:49;;;;;;;1.02;0.52;;;14.60;68.50;;;;;;5010204;28;20120;-70
2023/09/28 03:18:16;;;;;;;3.47;1.73;;;14.60;68.80;;;;;;5013640;28;20038;-70
2023/09/28 03:20:44;;;;;;;1.00;0.68;;;14.60;69.00;;;;;;5014397;28;20124;-70
2023/09/28 03:23:11;;;;;;;1.25;0.60;;;14.60;68.20;;;;;;5013700;28;20088;-70
2023/09/28 03:25:37;;;;;;;1.88;1.20;;;14.60;68.80;;;;;;5014549;28;20533;-71
2023/09/28 03:28:04;;;;;;;2.05;1.27;;;14.60;68.30;;;;;;5013436;28;20490;-71
2023/09/28 03:30:31;;;;;;;1.00;0.65;;;14.60;68.50;;;;;;5012714;28;20038;-71
2023/09/28 03:32:58;;;;;;;1.40;0.63;;;14.60;69.10;;;;;;5014821;28;20449;-71
2023/09/28 03:35:26;;;;;;;1.52;1.35;;;14.70;68.60;;;;;;5014217;28;20096;-71
2023/09/28 03:37:54;;;;;;;0.40;0.40;;;14.60;68.70;;;;;;5014779;28;20033;-70
2023/09/28 03:40:20;;;;;;;1.20;0.82;;;14.60;68.80;;;;;;5012459;28;20048;-71
2023/09/28 03:42:48;;;;;;;1.13;0.45;;;14.50;67.70;;;;;;5013503;28;20026;-71
2023/09/28 03:45:20;;;;;;;0.40;0.30;;;14.40;67.90;;;;;;5014039;28;20554;-71
2023/09/28 03:47:50;;;;;;;0.73;0.50;;;14.40;68.00;;;;;;5013467;28;20034;-70
2023/09/28 03:50:17;;;;;;;3.28;1.27;;;14.30;67.90;;;;;;5012503;28;20395;-71
2023/09/28 03:52:46;;;;;;;1.75;1.17;;;14.10;67.90;;;;;;5013453;28;20029;-71
2023/09/28 03:55:31;;;;;;;1.65;0.57;;;14.10;67.90;;;;;;5013967;28;20030;-70
2023/09/28 03:58:02;;;;;;;4.60;1.88;;;14.10;68.10;;;;;;5014373;28;20534;-70
2023/09/28 04:00:30;;;;;;;0.73;0.50;;;14.00;67.90;;;;;;5013438;28;20045;-70
2023/09/28 04:02:56;;;;;;;1.08;0.70;;;14.00;68.10;;;;;;5014170;28;20124;-71
2023/09/28 04:05:26;;;;;;;1.60;0.90;;;14.00;68.10;;;;;;5012292;28;20609;-71
2023/09/28 04:07:52;;;;;;;0.45;0.45;;;13.90;67.40;;;;;;5013086;28;20564;-70
2023/09/28 04:10:19;;;;;;;;;;;13.90;67.20;;;;;;5012358;28;20048;-70
2023/09/28 04:12:45;;;;;;;0.40;0.40;;;13.70;67.60;;;;;;5012797;28;19917;-71
2023/09/28 04:15:11;;;;;;;1.58;0.68;;;13.80;68.10;;;;;;5012341;28;20088;-70
2023/09/28 04:17:37;;;;;;;0.80;0.65;;;13.80;68.20;;;;;;5012588;28;20034;-70
2023/09/28 04:20:04;;;;;;;1.20;0.82;;;13.80;68.30;;;;;;5013272;28;20107;-70
2023/09/28 04:22:31;;;;;;;0.40;0.40;;;13.70;68.10;;;;;;5013705;28;20022;-71
2023/09/28 04:24:56;;;;;;;;;;;13.80;68.80;;;;;;5014269;28;20042;-70
2023/09/28 04:27:23;;;;;;;2.20;0.55;;;13.70;68.80;;;;;;5011385;28;20365;-70
2023/09/28 04:29:49;;;;;;;2.85;0.90;;;13.60;69.00;;;;;;5012381;28;20096;-70
2023/09/28 04:32:15;;;;;;;3.42;1.48;;;13.70;68.90;;;;;;5011463;28;20058;-70
2023/09/28 04:34:41;;;;;;;0.55;0.43;;;13.60;68.80;;;;;;5013893;28;20045;-71
2023/09/28 04:37:07;;;;;;;;;;;13.70;69.10;;;;;;5013721;28;20038;-71
2023/09/28 04:39:34;;;;;;;2.33;1.67;;;13.70;69.00;;;;;;5013862;28;19925;-71
2023/09/28 04:42:00;;;;;;;2.67;1.08;;;13.70;69.20;;;;;;5012869;28;20033;-71
2023/09/28 04:44:27;;;;;;;1.63;0.88;;;13.70;69.50;;;;;;5011998;28;20046;-71
2023/09/28 04:46:53;;;;;;;2.25;1.23;;;13.70;69.50;;;;;;5013039;28;20034;-70
2023/09/28 04:49:20;;;;;;;3.65;1.65;;;13.70;69.70;;;;;;5012287;28;20092;-70
2023/09/28 04:51:46;;;;;;;0.40;0.40;;;13.60;69.80;;;;;;5011216;28;20042;-70
2023/09/28 04:54:13;;;;;;;1.48;0.85;;;13.60;69.30;;;;;;5028534;28;20633;-70
2023/09/28 04:56:39;;;;;;;0.57;0.50;;;13.70;70.00;;;;;;5011598;28;20048;-70
2023/09/28 04:59:05;;;;;;;1.75;1.35;;;13.70;70.00;;;;;;5011874;28;20510;-71
2023/09/28 05:01:32;;;;;;;0.90;0.52;;;13.60;70.00;;;;;;5011003;28;20033;-70
2023/09/28 05:03:59;;;;;;;2.78;0.75;;;13.60;70.10;;;;;;5012022;28;20125;-71
2023/09/28 05:06:25;;;;;;;0.63;0.38;;;13.60;70.00;;;;;;5011670;28;20082;-71
2023/09/28 05:08:51;;;;;;;1.55;0.90;;;13.60;69.90;;;;;;5011861;28;20050;-71
2023/09/28 05:11:17;;;;;;;2.63;1.08;;;13.70;70.00;;;;;;5012017;28;20038;-70
2023/09/28 05:13:43;;;;;;;0.82;0.40;;;13.70;70.00;;;;;;5011791;28;20037;-71
2023/09/28 05:16:09;;;;;;;0.85;0.63;;;13.70;69.80;;;;;;5011116;28;20105;-70
2023/09/28 05:18:36;;;;;;;6.32;1.35;;;13.60;69.90;;;;;;5028105;28;20045;-71
2023/09/28 05:21:02;;;;;;;0.60;0.40;;;13.70;69.90;;;;;;5010586;28;20058;-70
2023/09/28 05:23:28;;;;;;;0.63;0.52;;;13.70;69.80;;;;;;5011603;28;20395;-70
2023/09/28 05:25:55;;;;;;;1.50;0.70;;;13.70;69.70;;;;;;5011151;28;20087;-70
2023/09/28 05:28:21;;;;;;;1.42;0.52;;;13.80;69.80;;;;;;5012660;28;20039;-70
2023/09/28 05:30:47;;;;;;;2.65;0.82;;;13.80;70.10;;;;;;5011885;28;20490;-70
2023/09/28 05:33:13;;;;;;;0.93;0.70;;;13.80;70.20;;;;;;5012802;28;20066;-71
2023/09/28 05:35:40;;;;;;;1.45;0.70;;;13.80;70.00;;;;;;5027416;28;20045;-71
2023/09/28 05:38:06;;;;;;;0.70;0.70;;;13.90;69.60;;;;;;5012555;28;20034;-70
2023/09/28 05:40:32;;;;;;;0.38;0.38;;;13.90;69.70;;;;;;5009977;28;20038;-71
2023/09/28 05:42:58;;;;;;;1.25;0.65;;;14.00;70.40;;;;;;5012602;28;20034;-70
2023/09/28 05:45:24;;;;;;;3.72;1.98;;;14.00;70.40;;;;;;5027068;28;20042;-71
2023/09/28 05:47:50;;;;;;;1.83;1.42;;;14.10;70.70;;;;;;5012544;28;20040;-71
2023/09/28 05:50:18;;;;;;;3.58;1.27;;;14.10;70.70;;;;;;5011501;28;20394;-70
2023/09/28 05:52:45;;;;;;;3.58;1.00;;;14.10;70.70;;;;;;5012430;28;20109;-70
2023/09/28 05:55:11;;;;;;;1.45;0.82;;;14.20;70.10;;;;;;5011863;28;20080;-71
2023/09/28 05:57:37;;;;;;;1.05;0.68;;;14.30;70.90;;;;;;5010796;28;20030;-70
2023/09/28 06:00:08;;;;;;;1.95;1.05;;;14.30;71.00;;;;;;5011646;28;20060;-70
2023/09/28 06:02:35;;;;;;;1.02;0.60;;;14.40;70.30;;;;;;5011017;28;20414;-71
2023/09/28 06:05:01;;;;;;;1.20;0.47;;;14.40;70.80;;;;;;5012157;28;20041;-70
2023/09/28 06:07:28;;;;;;;2.40;1.73;;;14.50;71.10;;;;;;5027072;28;20034;-70
2023/09/28 06:09:54;;;;;;;1.25;0.98;;;14.60;71.10;;;;;;5012013;28;20037;-71
2023/09/28 06:12:21;;;;;;;1.95;0.95;;;14.60;71.10;;;;;;5011201;28;20042;-71
2023/09/28 06:14:47;;;;;;;3.85;2.05;;;14.70;71.40;;;;;;5010881;28;20119;-70
2023/09/28 06:17:13;;;;;;;1.40;1.15;;;14.70;71.50;;;;;;5011634;28;20041;-71
2023/09/28 06:19:39;;;;;;;3.50;1.45;;;14.80;71.50;;;;;;5012156;28;20157;-71
2023/09/28 06:22:09;;;;;;;0.90;0.73;;;14.80;71.60;;;;;;5011297;28;20038;-70
2023/09/28 06:24:37;;;;;;;1.45;0.75;;;14.90;71.80;;;;;;5010931;28;20096;-71
2023/09/28 06:27:03;;;;;;;1.27;0.70;;;15.00;71.70;;;;;;5010382;28;20426;-71
2023/09/28 06:29:32;;;;;;;;;;;15.10;71.90;;;;;;5011211;28;20052;-70
2023/09/28 06:31:58;;;;;;;1.80;1.02;;;15.10;71.50;;;;;;5009933;28;19917;-70
2023/09/28 06:34:25;;;;;;;1.35;0.80;;;15.20;71.50;;;;;;5012084;28;20053;-71
2023/09/28 06:36:53;;;;;;;1.90;0.63;;;15.30;71.20;;;;;;5011581;28;20038;-70
2023/09/28 06:39:19;;;;;;;1.80;1.20;;;15.40;71.80;;;;;;5012106;28;20088;-70
2023/09/28 06:41:45;;;;;;;1.33;0.77;;;15.50;71.90;;;;;;5011254;28;20038;-70
2023/09/28 06:44:11;;;;;;;1.77;1.65;;;15.60;71.80;;;;;;5010489;28;20539;-70
2023/09/28 06:46:37;;;;;;;2.10;1.10;;;15.70;71.90;;;;;;5011413;28;20050;-70
2023/09/28 06:49:08;;;;;;;2.90;1.30;;;15.80;71.70;;;;;;5010543;28;20088;-70
2023/09/28 06:51:34;;;;;;;0.70;0.45;;;15.80;71.20;;;;;;5011448;28;20398;-70
2023/09/28 06:54:00;;;;;;;2.78;1.80;;;16.00;71.60;;;;;;5030628;28;20425;-70
2023/09/28 06:56:27;;;;;;;2.65;1.52;;;16.10;71.80;;;;;;5015008;28;20034;-71
2023/09/28 06:58:53;;;;;;;0.40;0.40;;;16.20;71.50;;;;;;5014220;28;20046;-70
2023/09/28 07:01:20;;;;;;;1.88;0.90;;;16.20;71.60;;;;;;5014419;28;20049;-70
2023/09/28 07:03:52;;;;;;;0.55;0.40;;;16.40;71.60;;;;;;5014293;28;20041;-70
2023/09/28 07:06:21;;;;;;;4.57;1.55;;;16.50;71.60;;;;;;5013799;28;20026;-71
2023/09/28 07:08:47;;;;;;;0.65;0.60;;;16.50;71.30;;;;;;5014268;28;20057;-71
2023/09/28 07:11:13;;;;;;;3.50;1.48;;;16.60;71.00;;;;;;5014257;28;20040;-70
2023/09/28 07:13:39;;;;;;;1.70;0.77;;;16.80;71.80;;;;;;5015536;28;20046;-71
2023/09/28 07:16:07;;;;;;;1.55;0.88;;;16.90;71.50;;;;;;5014515;28;20095;-70
2023/09/28 07:18:35;;;;;;;7.72;1.38;;;17.10;71.50;;;;;;5015325;28;20076;-70
2023/09/28 07:21:03;;;;;;;1.60;1.00;;;17.10;70.50;;;;;;5012640;28;20050;-71
2023/09/28 07:23:29;;;;;;;1.90;0.95;;;17.30;70.90;;;;;;5013758;28;20509;-71
2023/09/28 07:25:55;;;;;;;2.15;1.45;;;17.40;70.00;;;;;;5013328;28;20109;-71
2023/09/28 07:28:21;;;;;;;;;;;17.50;70.50;;;;;;5015464;28;20541;-71
2023/09/28 07:30:48;;;;;;;1.85;1.42;;;17.70;70.40;;;;;;5023342;28;19921;-71
2023/09/28 07:33:15;;;;;;;1.05;0.93;;;17.80;70.50;;;;;;5033228;28;20037;-71
2023/09/28 07:35:44;;;;;;;4.07;2.25;;;17.90;70.50;;;;;;5032597;28;20386;-71
2023/09/28 07:38:10;;;;;;;0.75;0.60;;;18.10;70.60;;;;;;5048156;28;20033;-71
2023/09/28 07:40:36;;;;;;;;;;;18.80;69.80;;;;;;5032701;28;20037;-71
2023/09/28 07:43:02;;;;;;;1.40;1.10;;;20.10;66.70;;;;;;5036781;28;19921;-71
2023/09/28 07:45:28;;;;;;;;;;;21.30;62.00;;;;;;5033127;28;20128;-71
2023/09/28 07:47:54;;;;;;;3.03;1.48;;;22.30;61.40;;;;;;5034213;28;20012;-71
2023/09/28 07:50:21;;;;;;;;;;;23.20;56.70;;;;;;5033635;28;20575;-71
2023/09/28 07:52:47;;;;;;;2.22;1.55;;;24.00;57.60;;;;;;5033033;28;19913;-71
2023/09/28 07:55:14;;;;;;;;;;;25.00;53.30;;;;;;5016407;28;20060;-72
2023/09/28 07:57:41;;;;;;;4.55;1.20;;;25.80;53.00;;;;;;5033999;28;19913;-71
2023/09/28 08:00:11;;;;;;;0.77;0.75;;;26.40;47.90;;;;;;5012130;28;20040;-72
2023/09/28 08:02:38;;;;;;;1.92;1.17;;;27.10;46.80;;;;;;5020713;28;20030;-71
2023/09/28 08:05:06;;;;;;;0.50;0.50;;;27.90;43.30;;;;;;5019233;28;20168;-72
2023/09/28 08:07:33;;;;;;;1.45;0.68;;;28.60;40.50;;;;;;5026310;28;20037;-72
2023/09/28 08:10:01;;;;;;;2.13;1.25;;;29.20;38.60;;;;;;5032537;28;20508;-71
2023/09/28 08:12:27;;;;;;;1.90;1.10;;;29.80;37.90;;;;;;5048346;28;20069;-72
2023/09/28 08:14:53;;;;;;;1.70;0.73;;;30.40;36.40;;;;;;5033641;28;20563;-72
2023/09/28 08:17:20;;;;;;;0.95;0.55;;;30.90;34.40;;;;;;5033247;28;20127;-72
2023/09/28 08:19:46;;;;;;;0.35;0.35;;;31.50;33.70;;;;;;5032433;28;20373;-72
2023/09/28 08:22:12;;;;;;;0.75;0.60;;;32.10;33.00;;;;;;5014962;28;20041;-73
2023/09/28 08:24:39;;;;;;;0.68;0.68;;;32.60;32.30;;;;;;5033874;28;20049;-72
2023/09/28 08:27:05;;;;;;;2.22;1.10;;;33.10;31.10;;;;;;5033101;28;20033;-72
2023/09/28 08:29:31;;;;;;;2.13;0.98;;;33.80;29.70;;;;;;5032265;28;20438;-72
2023/09/28 08:31:58;;;;;;;6.38;1.45;;;34.40;28.70;;;;;;5014821;28;20034;-72
2023/09/28 08:34:24;;;;;;;1.05;0.77;;;34.70;28.10;;;;;;5012427;28;20100;-72
2023/09/28 08:36:51;;;;;;;1.73;1.27;;;35.00;28.20;;;;;;5011791;28;20080;-72
2023/09/28 08:39:17;;;;;;;1.05;0.80;;;35.60;26.20;;;;;;5012231;28;20038;-73
2023/09/28 08:41:46;;;;;;;1.35;1.23;;;35.70;25.70;;;;;;5011382;28;20171;-72
2023/09/28 08:44:13;;;;;;;1.65;1.08;;;35.90;24.60;;;;;;5012261;28;20076;-72
2023/09/28 08:46:40;;;;;;;0.95;0.95;;;36.20;25.00;;;;;;5013021;28;20022;-72
2023/09/28 08:49:09;;;;;;;1.90;0.75;;;37.00;25.00;;;;;;5028588;28;20042;-72
2023/09/28 08:51:37;;;;;;;0.85;0.73;;;37.70;23.00;;;;;;5011142;28;20088;-73
2023/09/28 08:54:07;;;;;;;1.63;0.95;;;38.20;22.00;;;;;;5011917;28;20046;-72
2023/09/28 08:56:36;;;;;;;2.90;1.80;;;38.80;21.40;;;;;;5011332;28;20046;-72
2023/09/28 08:59:03;;;;;;;2.25;1.35;;;39.10;20.80;;;;;;5011868;28;20044;-73
2023/09/28 09:01:32;;;;;;;1.38;1.05;;;39.50;20.20;;;;;;5024699;28;20084;-73
2023/09/28 09:03:59;;;;;;;1.52;0.75;;;40.00;19.60;;;;;;5033029;28;20129;-73
2023/09/28 09:06:29;;;;;;;1.50;1.00;;;40.40;19.00;;;;;;5031357;28;20462;-72
2023/09/28 09:09:00;;;;;;;1.60;0.90;;;40.70;18.50;;;;;;5031608;28;20044;-73
2023/09/28 09:11:33;;;;;;;1.08;0.85;;;41.00;18.60;;;;;;5030702;28;20398;-72
2023/09/28 09:14:00;;;;;;;1.63;1.35;;;41.40;17.40;;;;;;5031076;28;20112;-72
2023/09/28 09:16:39;;;;;;;1.77;1.65;;;41.70;16.70;;;;;;5032364;28;20072;-73
2023/09/28 09:19:04;;;;;;;2.53;1.23;;;41.60;17.40;;;;;;5031068;28;20045;-72
2023/09/28 09:21:41;;;;;;;1.42;1.00;;;41.10;17.80;;;;;;5030227;28;20042;-73
2023/09/28 09:26:53;;;;;;;;;;;38.30;19.80;;;;;;5032566;28;20060;-73
2023/09/28 09:29:20;;;;;;;2.15;1.35;;;37.50;20.50;;;;;;5031231;28;19917;-73
2023/09/28 09:31:47;;;;;;;2.30;1.30;;;37.10;21.20;;;;;;5030342;28;20463;-73
2023/09/28 09:37:02;;;;;;;1.42;0.95;;;35.70;22.30;;;;;;5030825;28;20068;-72
2023/09/28 09:39:32;;;;;;;2.33;1.40;;;35.20;23.10;;;;;;5032384;28;20091;-73
2023/09/28 09:41:58;;;;;;;0.90;0.75;;;34.70;23.70;;;;;;5030192;28;20486;-72
2023/09/28 09:44:26;;;;;;;1.65;1.02;;;34.20;24.20;;;;;;5030867;28;20034;-72
2023/09/28 09:46:54;;;;;;;1.20;0.85;;;33.80;24.10;;;;;;5030600;28;20527;-72
2023/09/28 09:49:24;;;;;;;0.80;0.80;;;33.50;24.60;;;;;;5030873;28;20048;-72
2023/09/28 09:51:51;;;;;;;2.17;1.48;;;33.40;24.70;;;;;;5029946;28;20041;-72
2023/09/28 09:54:19;;;;;;;1.00;0.73;;;33.10;25.10;;;;;;5030985;28;20091;-72
2023/09/28 09:56:48;;;;;;;1.02;0.70;;;32.70;25.70;;;;;;5030345;28;20041;-72
2023/09/28 09:59:34;;;;;;;1.13;0.80;;;32.30;26.40;;;;;;5030713;28;20036;-72
2023/09/28 10:02:03;;;;;;;1.42;0.95;;;31.90;26.80;;;;;;5031349;28;20045;-72
2023/09/28 10:04:31;;;;;;;1.23;0.82;;;31.50;27.60;;;;;;5030800;28;20076;-72
2023/09/28 10:07:00;;;;;;;1.55;1.08;;;31.20;27.90;;;;;;5030237;28;20076;-72
2023/09/28 10:09:26;;;;;;;0.82;0.68;;;30.80;28.80;;;;;;5031962;28;20128;-72
2023/09/28 10:11:53;;;;;;;1.73;1.33;;;30.70;28.90;;;;;;5031126;28;20048;-71
2023/09/28 10:14:21;;;;;;;2.50;1.15;;;30.60;29.20;;;;;;5032117;28;20406;-71
2023/09/28 10:17:06;;;;;;;1.48;0.85;;;31.90;27.30;;;;;;5013664;28;20509;-72
2023/09/28 10:19:32;;;;;;;2.20;0.88;;;32.20;27.10;;;;;;5013829;28;20029;-72
2023/09/28 10:21:59;;;;;;;1.30;1.13;;;32.20;27.70;;;;;;5029945;28;20072;-72
2023/09/28 10:24:44;;;;;;;0.70;0.70;;;31.90;27.90;;;;;;5031967;28;20096;-72
2023/09/28 10:27:11;;;;;;;1.15;0.70;;;31.50;28.80;;;;;;5016372;28;20079;-72
2023/09/28 10:29:39;;;;;;;1.77;1.25;;;31.80;28.10;;;;;;5033056;28;20037;-71
2023/09/28 10:32:43;;;;;;;2.25;1.42;;;31.80;28.60;;;;;;5033640;28;20033;-71
2023/09/28 10:35:29;;;;;;;2.15;1.10;;;31.40;28.40;;;;;;5035146;28;20068;-72
2023/09/28 10:38:20;;;;;;;;;;;31.00;29.00;;;;;;5035102;28;20465;-71
2023/09/28 10:41:06;;;;;;;3.15;1.10;;;30.80;29.20;;;;;;5033502;28;19917;-72
2023/09/28 10:43:50;;;;;;;0.75;0.55;;;30.60;29.50;;;;;;5034495;28;20425;-72
2023/09/28 10:46:17;;;;;;;0.93;0.63;;;30.50;30.40;;;;;;5035041;28;20525;-71
2023/09/28 10:48:47;;;;;;;1.67;1.02;;;30.20;31.00;;;;;;5035647;28;20044;-71
2023/09/28 10:51:15;;;;;;;3.05;2.00;;;30.00;30.40;;;;;;5034459;28;20117;-71
2023/09/28 10:53:43;;;;;;;1.27;0.55;;;29.90;31.00;;;;;;5050742;28;20120;-71
2023/09/28 10:56:13;;;;;;;1.38;0.90;;;29.80;31.40;;;;;;5034869;28;20374;-71
2023/09/28 10:58:41;;;;;;;0.88;0.68;;;29.70;31.10;;;;;;5048217;28;20041;-72
2023/09/28 11:01:08;;;;;;;1.58;0.55;;;29.60;30.00;;;;;;5031765;28;20037;-71
2023/09/28 11:03:35;;;;;;;0.90;0.70;;;29.50;29.20;;;;;;5033873;28;20045;-72
2023/09/28 11:06:03;;;;;;;2.45;1.67;;;29.40;31.00;;;;;;5033208;28;20030;-72
2023/09/28 11:08:31;;;;;;;3.40;1.45;;;29.30;31.30;;;;;;5050361;28;20437;-71
2023/09/28 11:11:17;;;;;;;1.80;1.27;;;29.20;29.60;;;;;;5016300;28;20025;-72
2023/09/28 11:13:44;;;;;;;3.25;0.77;;;29.00;29.80;;;;;;5033829;28;20048;-71
2023/09/28 11:16:11;;;;;;;1.90;1.25;;;29.00;30.90;;;;;;5033548;28;20037;-71
2023/09/28 11:18:38;;;;;;;1.35;1.10;;;29.10;31.20;;;;;;5033724;28;20044;-71
2023/09/28 11:21:05;;;;;;;1.65;1.00;;;29.20;31.10;;;;;;5031843;28;20041;-71
2023/09/28 11:23:31;;;;;;;2.90;1.23;;;29.30;31.10;;;;;;5033691;28;20030;-72
2023/09/28 11:25:58;;;;;;;2.33;1.42;;;29.30;31.10;;;;;;5033170;28;20037;-71
2023/09/28 11:28:24;;;;;;;2.03;1.05;;;29.30;30.70;;;;;;5048916;28;20094;-72
2023/09/28 11:36:42;;;;;;;1.98;1.25;;;29.90;30.50;;;;;;5031300;28;20532;-71
2023/09/28 11:39:08;;;;;;;1.27;0.88;;;30.20;31.00;;;;;;5033486;28;20041;-71
2023/09/28 11:41:34;;;;;;;1.10;0.93;;;30.20;30.00;;;;;;5031084;28;20075;-72
2023/09/28 11:44:00;;;;;;;0.52;0.52;;;30.10;29.20;;;;;;5033658;28;20037;-72
2023/09/28 11:46:45;;;;;;;4.22;1.70;;;30.00;29.90;;;;;;5032803;28;20037;-71
2023/09/28 11:49:16;;;;;;;1.42;0.75;;;30.00;30.50;;;;;;5033472;28;20048;-71
2023/09/28 11:51:43;;;;;;;1.48;0.85;;;30.30;28.90;;;;;;5031139;28;20461;-72
2023/09/28 11:54:12;;;;;;;1.20;0.68;;;30.40;29.60;;;;;;5015347;28;20030;-71
2023/09/28 11:56:58;;;;;;;1.55;1.25;;;30.90;29.00;;;;;;5031299;28;20056;-71
2023/09/28 11:59:24;;;;;;;1.30;0.95;;;32.60;26.70;;;;;;5033255;28;20114;-72
2023/09/28 12:01:55;;;;;;;2.03;1.20;;;33.00;26.30;;;;;;5030783;28;20041;-72
2023/09/28 12:04:21;;;;;;;1.17;0.60;;;33.00;26.40;;;;;;5031780;28;20486;-71
2023/09/28 12:06:48;;;;;;;1.27;0.70;;;33.80;25.20;;;;;;5032488;28;20060;-72
2023/09/28 12:09:18;;;;;;;3.47;0.82;;;33.50;24.60;;;;;;5031757;28;20071;-71
2023/09/28 12:11:46;;;;;;;3.42;0.90;;;33.10;25.70;;;;;;5030958;28;20432;-71
2023/09/28 12:14:12;;;;;;;0.93;0.60;;;32.80;25.70;;;;;;5048186;28;20034;-72
2023/09/28 12:16:38;;;;;;;1.02;0.70;;;32.40;25.10;;;;;;5031037;28;20037;-71
2023/09/28 12:19:04;;;;;;;3.70;1.23;;;32.20;25.50;;;;;;5031539;28;20072;-71
2023/09/28 12:21:30;;;;;;;1.48;0.80;;;32.00;26.40;;;;;;4987046;28;1165599;-71
2023/09/28 12:23:58;;;;;;;1.25;0.95;;;32.00;26.10;;;;;;5012808;28;20065;-72
2023/09/28 12:26:24;;;;;;;0.30;0.30;;;32.60;25.60;;;;;;5013306;28;20036;-71
2023/09/28 12:28:50;;;;;;;0.73;0.45;;;32.90;24.80;;;;;;5014043;28;20038;-71
2023/09/28 12:31:17;;;;;;;2.17;0.82;;;32.70;23.60;;;;;;5012979;28;20564;-72
2023/09/28 12:33:43;;;;;;;1.10;0.82;;;32.90;25.00;;;;;;5013919;28;20037;-72
2023/09/28 12:36:09;;;;;;;1.65;0.93;;;33.00;25.20;;;;;;5013264;28;20085;-71
2023/09/28 12:38:35;;;;;;;1.85;1.27;;;32.70;25.00;;;;;;5012201;28;20038;-71
2023/09/28 12:41:04;;;;;;;1.83;1.17;;;32.40;26.50;;;;;;5012695;28;20121;-71
2023/09/28 12:43:31;;;;;;;2.20;1.27;;;32.30;25.40;;;;;;5028380;28;20042;-72
2023/09/28 12:45:58;;;;;;;0.88;0.65;;;32.50;24.80;;;;;;5011824;28;20030;-71
2023/09/28 12:48:24;;;;;;;1.67;1.17;;;33.20;24.60;;;;;;4995490;28;20044;-72
2023/09/28 12:50:50;;;;;;;1.48;0.93;;;35.70;23.00;;;;;;5012258;28;20034;-72
2023/09/28 12:53:16;;;;;;;0.85;0.50;;;38.80;20.20;;;;;;5013417;28;20045;-72
2023/09/28 12:55:42;;;;;;;1.73;0.95;;;40.90;17.60;;;;;;5012871;28;20483;-72
2023/09/28 12:58:09;;;;;;;0.75;0.63;;;40.90;17.00;;;;;;5028376;28;20045;-71
2023/09/28 13:00:37;;;;;;;0.38;0.38;;;39.40;18.10;;;;;;5010966;28;20038;-72
2023/09/28 13:03:08;;;;;;;8.10;1.30;;;38.70;18.70;;;;;;5013208;28;20030;-72
2023/09/28 13:05:41;;;;;;;0.85;0.65;;;40.60;17.30;;;;;;5011453;28;20114;-72
2023/09/28 13:08:25;;;;;;;0.63;0.63;;;42.20;15.40;;;;;;5012007;28;20065;-72
2023/09/28 13:10:51;;;;;;;0.65;0.60;;;44.20;14.90;;;;;;5010960;28;20046;-72
2023/09/28 13:13:18;;;;;;;0.85;0.73;;;45.40;13.80;;;;;;5013052;28;20085;-72